sensor_id;sensor_type;location;lat;lon;timestamp;pressure;altitude;pressure_sealevel;temperature;humidity
77381;BME280;66439;50.106;10.996;2024-03-23T00:54:15;97888.11;;;11.73;57.10
77381;BME280;66439;50.106;10.996;2024-03-23T00:56:17;97878.95;;;11.72;57.35
77381;BME280;66439;50.106;10.996;2024-03-23T00:58:20;97878.38;;;11.69;57.50
77381;BME280;66439;50.106;10.996;2024-03-23T01:00:23;97870.56;;;11.65;57.42
77381;BME280;66439;50.106;10.996;2024-03-23T01:02:26;97869.52;;;11.61;57.51
77381;BME280;66439;50.106;10.996;2024-03-23T01:04:28;97866.05;;;11.58;57.64
77381;BME280;66439;50.106;10.996;2024-03-23T01:06:31;97868.27;;;11.56;57.84
77381;BME280;66439;50.106;10.996;2024-03-23T01:08:33;97867.62;;;11.56;57.66
77381;BME280;66439;50.106;10.996;2024-03-23T01:10:36;97867.77;;;11.55;57.92
77381;BME280;66439;50.106;10.996;2024-03-23T01:12:39;97863.41;;;11.50;58.03
77381;BME280;66439;50.106;10.996;2024-03-23T01:14:41;97863.80;;;11.47;58.19
77381;BME280;66439;50.106;10.996;2024-03-23T01:16:43;97859.46;;;11.44;58.37
77381;BME280;66439;50.106;10.996;2024-03-23T01:18:46;97857.50;;;11.41;58.36
77381;BME280;66439;50.106;10.996;2024-03-23T01:20:49;97857.02;;;11.41;58.42
77381;BME280;66439;50.106;10.996;2024-03-23T01:22:52;97851.25;;;11.37;58.38
77381;BME280;66439;50.106;10.996;2024-03-23T01:24:54;97850.69;;;11.34;58.65
77381;BME280;66439;50.106;10.996;2024-03-23T01:26:57;97847.16;;;11.38;58.69
77381;BME280;66439;50.106;10.996;2024-03-23T01:28:59;97844.87;;;11.40;58.77
77381;BME280;66439;50.106;10.996;2024-03-23T01:31:02;97836.16;;;11.43;58.62
77381;BME280;66439;50.106;10.996;2024-03-23T01:33:07;97834.70;;;11.45;58.62
77381;BME280;66439;50.106;10.996;2024-03-23T01:35:10;97822.20;;;11.45;58.68
77381;BME280;66439;50.106;10.996;2024-03-23T01:37:12;97816.58;;;11.48;58.57
77381;BME280;66439;50.106;10.996;2024-03-23T01:39:14;97820.44;;;11.48;58.56
77381;BME280;66439;50.106;10.996;2024-03-23T01:41:17;97825.14;;;11.47;58.61
77381;BME280;66439;50.106;10.996;2024-03-23T01:43:20;97821.60;;;11.43;58.50
77381;BME280;66439;50.106;10.996;2024-03-23T01:45:23;97820.60;;;11.36;58.85
77381;BME280;66439;50.106;10.996;2024-03-23T01:47:25;97820.98;;;11.31;58.98
77381;BME280;66439;50.106;10.996;2024-03-23T01:49:28;97818.49;;;11.29;59.03
77381;BME280;66439;50.106;10.996;2024-03-23T01:51:32;97811.46;;;11.27;59.07
77381;BME280;66439;50.106;10.996;2024-03-23T01:53:38;97808.02;;;11.26;59.07
77381;BME280;66439;50.106;10.996;2024-03-23T01:55:41;97798.98;;;11.23;59.09
77381;BME280;66439;50.106;10.996;2024-03-23T01:57:45;97797.77;;;11.22;59.23
77381;BME280;66439;50.106;10.996;2024-03-23T01:59:48;97799.29;;;11.19;59.32
77381;BME280;66439;50.106;10.996;2024-03-23T02:01:54;97793.54;;;11.16;59.31
77381;BME280;66439;50.106;10.996;2024-03-23T02:03:57;97790.42;;;11.14;59.41
77381;BME280;66439;50.106;10.996;2024-03-23T02:06:00;97784.00;;;11.13;59.47
77381;BME280;66439;50.106;10.996;2024-03-23T02:08:03;97778.80;;;11.14;59.53
77381;BME280;66439;50.106;10.996;2024-03-23T02:10:07;97774.39;;;11.14;59.50
77381;BME280;66439;50.106;10.996;2024-03-23T02:12:10;97761.74;;;11.14;59.54
77381;BME280;66439;50.106;10.996;2024-03-23T02:14:13;97755.92;;;11.12;59.49
77381;BME280;66439;50.106;10.996;2024-03-23T02:16:15;97752.52;;;11.13;59.49
77381;BME280;66439;50.106;10.996;2024-03-23T02:18:17;97754.48;;;11.11;59.49
77381;BME280;66439;50.106;10.996;2024-03-23T02:20:20;97753.33;;;11.09;59.47
77381;BME280;66439;50.106;10.996;2024-03-23T02:22:22;97745.36;;;11.06;59.61
77381;BME280;66439;50.106;10.996;2024-03-23T02:24:25;97733.96;;;11.02;59.78
77381;BME280;66439;50.106;10.996;2024-03-23T02:26:28;97716.30;;;11.00;59.71
77381;BME280;66439;50.106;10.996;2024-03-23T02:28:30;97718.88;;;11.00;59.68
77381;BME280;66439;50.106;10.996;2024-03-23T02:30:33;97716.05;;;10.97;59.83
77381;BME280;66439;50.106;10.996;2024-03-23T02:32:35;97713.81;;;10.96;59.82
77381;BME280;66439;50.106;10.996;2024-03-23T02:34:39;97712.42;;;10.95;59.86
77381;BME280;66439;50.106;10.996;2024-03-23T02:36:42;97718.98;;;10.92;60.08
77381;BME280;66439;50.106;10.996;2024-03-23T02:38:44;97713.64;;;10.89;60.10
77381;BME280;66439;50.106;10.996;2024-03-23T02:40:47;97710.26;;;10.85;60.31
77381;BME280;66439;50.106;10.996;2024-03-23T02:42:49;97705.77;;;10.81;60.51
77381;BME280;66439;50.106;10.996;2024-03-23T02:44:52;97697.27;;;10.83;60.57
77381;BME280;66439;50.106;10.996;2024-03-23T02:46:54;97686.73;;;10.87;60.61
77381;BME280;66439;50.106;10.996;2024-03-23T02:49:21;97678.51;;;10.95;60.64
77381;BME280;66439;50.106;10.996;2024-03-23T02:51:23;97676.34;;;10.94;60.44
77381;BME280;66439;50.106;10.996;2024-03-23T02:53:26;97671.11;;;10.93;60.35
77381;BME280;66439;50.106;10.996;2024-03-23T02:55:28;97670.76;;;10.91;60.44
77381;BME280;66439;50.106;10.996;2024-03-23T02:57:32;97665.14;;;10.87;60.49
77381;BME280;66439;50.106;10.996;2024-03-23T02:59:35;97664.79;;;10.85;60.62
77381;BME280;66439;50.106;10.996;2024-03-23T03:01:38;97659.06;;;10.85;60.69
77381;BME280;66439;50.106;10.996;2024-03-23T03:03:40;97655.06;;;10.87;60.65
77381;BME280;66439;50.106;10.996;2024-03-23T03:05:42;97652.41;;;10.88;60.54
77381;BME280;66439;50.106;10.996;2024-03-23T03:07:45;97650.14;;;10.87;60.42
77381;BME280;66439;50.106;10.996;2024-03-23T03:09:48;97646.25;;;10.83;60.50
77381;BME280;66439;50.106;10.996;2024-03-23T03:11:50;97635.56;;;10.81;60.43
77381;BME280;66439;50.106;10.996;2024-03-23T03:13:53;97632.21;;;10.79;60.61
77381;BME280;66439;50.106;10.996;2024-03-23T03:15:55;97635.56;;;10.81;60.69
77381;BME280;66439;50.106;10.996;2024-03-23T03:17:58;97631.41;;;10.82;60.74
77381;BME280;66439;50.106;10.996;2024-03-23T03:20:00;97626.09;;;10.82;60.56
77381;BME280;66439;50.106;10.996;2024-03-23T03:22:03;97618.61;;;10.83;60.63
77381;BME280;66439;50.106;10.996;2024-03-23T03:24:06;97619.80;;;10.84;60.68
77381;BME280;66439;50.106;10.996;2024-03-23T03:26:09;97617.15;;;10.84;60.59
77381;BME280;66439;50.106;10.996;2024-03-23T03:28:11;97605.73;;;10.85;60.80
77381;BME280;66439;50.106;10.996;2024-03-23T03:30:14;97603.19;;;10.85;60.68
77381;BME280;66439;50.106;10.996;2024-03-23T03:32:16;97599.33;;;10.83;60.75
77381;BME280;66439;50.106;10.996;2024-03-23T03:34:19;97592.34;;;10.80;60.83
77381;BME280;66439;50.106;10.996;2024-03-23T03:36:21;97581.17;;;10.81;60.88
77381;BME280;66439;50.106;10.996;2024-03-23T03:38:23;97582.45;;;10.80;60.85
77381;BME280;66439;50.106;10.996;2024-03-23T03:40:26;97575.73;;;10.79;61.05
77381;BME280;66439;50.106;10.996;2024-03-23T03:42:28;97569.81;;;10.80;61.13
77381;BME280;66439;50.106;10.996;2024-03-23T03:44:31;97563.22;;;10.81;61.04
77381;BME280;66439;50.106;10.996;2024-03-23T03:46:34;97553.73;;;10.79;61.23
77381;BME280;66439;50.106;10.996;2024-03-23T03:48:37;97549.60;;;10.75;61.23
77381;BME280;66439;50.106;10.996;2024-03-23T03:50:40;97546.56;;;10.75;61.59
77381;BME280;66439;50.106;10.996;2024-03-23T03:52:42;97546.94;;;10.74;61.61
77381;BME280;66439;50.106;10.996;2024-03-23T03:54:46;97544.58;;;10.74;61.68
77381;BME280;66439;50.106;10.996;2024-03-23T03:56:48;97540.09;;;10.71;61.73
77381;BME280;66439;50.106;10.996;2024-03-23T03:58:51;97544.71;;;10.68;61.89
77381;BME280;66439;50.106;10.996;2024-03-23T04:00:54;97550.28;;;10.65;62.46
77381;BME280;66439;50.106;10.996;2024-03-23T04:02:57;97558.20;;;10.62;62.92
77381;BME280;66439;50.106;10.996;2024-03-23T04:04:59;97554.52;;;10.63;63.21
77381;BME280;66439;50.106;10.996;2024-03-23T04:07:02;97551.08;;;10.65;63.42
77381;BME280;66439;50.106;10.996;2024-03-23T04:09:04;97549.21;;;10.66;63.74
77381;BME280;66439;50.106;10.996;2024-03-23T04:11:08;97539.96;;;10.69;63.85
77381;BME280;66439;50.106;10.996;2024-03-23T04:13:12;97550.85;;;10.74;63.82
77381;BME280;66439;50.106;10.996;2024-03-23T04:15:15;97553.63;;;10.80;63.87
77381;BME280;66439;50.106;10.996;2024-03-23T04:17:17;97542.57;;;10.85;64.25
77381;BME280;66439;50.106;10.996;2024-03-23T04:19:20;97545.21;;;10.89;64.44
77381;BME280;66439;50.106;10.996;2024-03-23T04:21:22;97548.84;;;10.91;64.56
77381;BME280;66439;50.106;10.996;2024-03-23T04:23:25;97551.84;;;10.89;64.67
77381;BME280;66439;50.106;10.996;2024-03-23T04:25:28;97547.61;;;10.85;64.81
77381;BME280;66439;50.106;10.996;2024-03-23T04:27:30;97543.16;;;10.84;65.09
77381;BME280;66439;50.106;10.996;2024-03-23T04:29:32;97540.00;;;10.86;65.18
77381;BME280;66439;50.106;10.996;2024-03-23T04:31:36;97540.75;;;10.87;65.17
77381;BME280;66439;50.106;10.996;2024-03-23T04:33:39;97535.23;;;10.84;65.47
77381;BME280;66439;50.106;10.996;2024-03-23T04:35:42;97529.83;;;10.85;65.48
77381;BME280;66439;50.106;10.996;2024-03-23T04:37:44;97528.77;;;10.84;65.44
77381;BME280;66439;50.106;10.996;2024-03-23T04:39:47;97524.89;;;10.82;65.63
77381;BME280;66439;50.106;10.996;2024-03-23T04:41:51;97521.80;;;10.87;65.64
77381;BME280;66439;50.106;10.996;2024-03-23T04:43:55;97521.85;;;10.91;65.58
77381;BME280;66439;50.106;10.996;2024-03-23T04:45:58;97512.86;;;10.96;65.55
77381;BME280;66439;50.106;10.996;2024-03-23T04:48:00;97517.05;;;10.99;65.77
77381;BME280;66439;50.106;10.996;2024-03-23T04:50:06;97508.60;;;11.03;65.77
77381;BME280;66439;50.106;10.996;2024-03-23T04:52:08;97501.13;;;11.06;65.83
77381;BME280;66439;50.106;10.996;2024-03-23T04:54:11;97490.83;;;11.10;65.71
77381;BME280;66439;50.106;10.996;2024-03-23T04:56:15;97493.16;;;11.16;65.89
77381;BME280;66439;50.106;10.996;2024-03-23T04:58:18;97477.15;;;11.22;65.57
77381;BME280;66439;50.106;10.996;2024-03-23T05:00:20;97477.50;;;11.26;65.67
77381;BME280;66439;50.106;10.996;2024-03-23T05:02:23;97474.40;;;11.28;65.77
77381;BME280;66439;50.106;10.996;2024-03-23T05:04:26;97472.35;;;11.30;65.62
77381;BME280;66439;50.106;10.996;2024-03-23T05:06:28;97468.88;;;11.33;65.62
77381;BME280;66439;50.106;10.996;2024-03-23T05:08:31;97466.62;;;11.39;65.56
77381;BME280;66439;50.106;10.996;2024-03-23T05:10:33;97474.02;;;11.43;65.65
77381;BME280;66439;50.106;10.996;2024-03-23T05:12:39;97468.98;;;11.44;65.96
77381;BME280;66439;50.106;10.996;2024-03-23T05:14:42;97464.65;;;11.47;65.85
77381;BME280;66439;50.106;10.996;2024-03-23T05:16:44;97457.20;;;11.51;65.82
77381;BME280;66439;50.106;10.996;2024-03-23T05:18:47;97448.55;;;11.53;65.82
77381;BME280;66439;50.106;10.996;2024-03-23T05:20:55;97444.92;;;11.56;65.51
77381;BME280;66439;50.106;10.996;2024-03-23T05:23:01;97434.16;;;11.58;65.55
77381;BME280;66439;50.106;10.996;2024-03-23T05:25:03;97429.24;;;11.59;65.46
77381;BME280;66439;50.106;10.996;2024-03-23T05:27:10;97429.16;;;11.60;65.26
77381;BME280;66439;50.106;10.996;2024-03-23T05:29:12;97429.92;;;11.60;65.34
77381;BME280;66439;50.106;10.996;2024-03-23T05:31:28;97428.06;;;11.62;65.22
77381;BME280;66439;50.106;10.996;2024-03-23T05:33:31;97430.80;;;11.63;65.27
77381;BME280;66439;50.106;10.996;2024-03-23T05:35:34;97430.23;;;11.62;65.39
77381;BME280;66439;50.106;10.996;2024-03-23T05:37:36;97428.86;;;11.60;65.41
77381;BME280;66439;50.106;10.996;2024-03-23T05:39:39;97436.89;;;11.63;65.50
77381;BME280;66439;50.106;10.996;2024-03-23T05:41:42;97438.36;;;11.65;65.56
77381;BME280;66439;50.106;10.996;2024-03-23T05:43:45;97443.02;;;11.67;65.64
77381;BME280;66439;50.106;10.996;2024-03-23T05:45:55;97434.59;;;11.69;65.84
77381;BME280;66439;50.106;10.996;2024-03-23T05:47:57;97435.20;;;11.74;65.72
77381;BME280;66439;50.106;10.996;2024-03-23T05:50:01;97429.63;;;11.76;65.69
77381;BME280;66439;50.106;10.996;2024-03-23T05:52:04;97427.52;;;11.80;65.60
77381;BME280;66439;50.106;10.996;2024-03-23T05:54:07;97419.33;;;11.82;65.68
77381;BME280;66439;50.106;10.996;2024-03-23T05:56:09;97414.95;;;11.83;65.71
77381;BME280;66439;50.106;10.996;2024-03-23T05:58:12;97403.71;;;11.85;65.57
77381;BME280;66439;50.106;10.996;2024-03-23T06:00:14;97404.57;;;11.86;65.74
77381;BME280;66439;50.106;10.996;2024-03-23T06:02:20;97408.36;;;11.87;65.68
77381;BME280;66439;50.106;10.996;2024-03-23T06:04:22;97406.88;;;11.87;65.52
77381;BME280;66439;50.106;10.996;2024-03-23T06:06:25;97400.65;;;11.88;65.57
77381;BME280;66439;50.106;10.996;2024-03-23T06:08:28;97393.88;;;11.87;65.60
77381;BME280;66439;50.106;10.996;2024-03-23T06:10:30;97394.00;;;11.86;65.45
77381;BME280;66439;50.106;10.996;2024-03-23T06:12:34;97398.52;;;11.88;65.20
77381;BME280;66439;50.106;10.996;2024-03-23T06:14:36;97403.96;;;11.92;65.21
77381;BME280;66439;50.106;10.996;2024-03-23T06:16:41;97398.21;;;11.93;65.20
77381;BME280;66439;50.106;10.996;2024-03-23T06:18:44;97395.88;;;11.96;65.23
77381;BME280;66439;50.106;10.996;2024-03-23T06:20:46;97397.67;;;11.97;65.04
77381;BME280;66439;50.106;10.996;2024-03-23T06:22:49;97398.46;;;11.99;64.99
77381;BME280;66439;50.106;10.996;2024-03-23T06:24:51;97402.36;;;11.99;64.96
77381;BME280;66439;50.106;10.996;2024-03-23T06:26:54;97405.14;;;11.99;64.91
77381;BME280;66439;50.106;10.996;2024-03-23T06:28:56;97408.31;;;11.99;64.95
77381;BME280;66439;50.106;10.996;2024-03-23T06:30:59;97404.41;;;11.96;64.90
77381;BME280;66439;50.106;10.996;2024-03-23T06:33:01;97401.36;;;11.96;64.81
77381;BME280;66439;50.106;10.996;2024-03-23T06:35:04;97400.95;;;11.97;64.80
77381;BME280;66439;50.106;10.996;2024-03-23T06:37:11;97398.27;;;11.96;64.79
77381;BME280;66439;50.106;10.996;2024-03-23T06:39:13;97404.06;;;11.95;64.73
77381;BME280;66439;50.106;10.996;2024-03-23T06:41:17;97412.20;;;11.95;64.87
77381;BME280;66439;50.106;10.996;2024-03-23T06:43:21;97413.63;;;11.96;64.83
77381;BME280;66439;50.106;10.996;2024-03-23T06:45:25;97417.36;;;11.99;64.95
77381;BME280;66439;50.106;10.996;2024-03-23T06:47:28;97419.18;;;12.01;64.77
77381;BME280;66439;50.106;10.996;2024-03-23T06:49:30;97419.09;;;12.01;65.00
77381;BME280;66439;50.106;10.996;2024-03-23T06:51:33;97417.95;;;12.01;64.80
77381;BME280;66439;50.106;10.996;2024-03-23T06:53:36;97413.80;;;12.01;64.90
77381;BME280;66439;50.106;10.996;2024-03-23T06:55:38;97421.79;;;12.02;64.69
77381;BME280;66439;50.106;10.996;2024-03-23T06:57:41;97427.94;;;12.04;64.45
77381;BME280;66439;50.106;10.996;2024-03-23T06:59:44;97422.16;;;12.05;64.52
77381;BME280;66439;50.106;10.996;2024-03-23T07:01:46;97428.96;;;12.04;64.36
77381;BME280;66439;50.106;10.996;2024-03-23T07:03:51;97433.24;;;12.03;64.54
77381;BME280;66439;50.106;10.996;2024-03-23T07:05:57;97436.80;;;12.00;64.39
77381;BME280;66439;50.106;10.996;2024-03-23T07:08:00;97446.34;;;11.97;64.51
77381;BME280;66439;50.106;10.996;2024-03-23T07:10:03;97455.19;;;11.93;64.48
77381;BME280;66439;50.106;10.996;2024-03-23T07:12:06;97468.10;;;11.90;64.41
77381;BME280;66439;50.106;10.996;2024-03-23T07:14:08;97473.85;;;11.88;64.49
77381;BME280;66439;50.106;10.996;2024-03-23T07:16:13;97485.73;;;11.82;64.41
77381;BME280;66439;50.106;10.996;2024-03-23T07:18:15;97487.90;;;11.77;64.54
77381;BME280;66439;50.106;10.996;2024-03-23T07:20:18;97497.23;;;11.74;64.42
77381;BME280;66439;50.106;10.996;2024-03-23T07:22:22;97501.85;;;11.66;64.09
77381;BME280;66439;50.106;10.996;2024-03-23T07:24:26;97508.45;;;11.61;64.21
77381;BME280;66439;50.106;10.996;2024-03-23T07:26:29;97507.05;;;11.61;64.12
77381;BME280;66439;50.106;10.996;2024-03-23T07:28:31;97511.53;;;11.61;63.64
77381;BME280;66439;50.106;10.996;2024-03-23T07:30:35;97512.95;;;11.57;63.50
77381;BME280;66439;50.106;10.996;2024-03-23T07:32:38;97520.15;;;11.54;63.44
77381;BME280;66439;50.106;10.996;2024-03-23T07:34:41;97521.14;;;11.53;63.32
77381;BME280;66439;50.106;10.996;2024-03-23T07:36:45;97531.79;;;11.48;62.55
77381;BME280;66439;50.106;10.996;2024-03-23T07:38:48;97523.70;;;11.36;62.42
77381;BME280;66439;50.106;10.996;2024-03-23T07:43:09;97527.88;;;11.31;62.64
77381;BME280;66439;50.106;10.996;2024-03-23T07:45:12;97534.01;;;11.25;62.70
77381;BME280;66439;50.106;10.996;2024-03-23T07:47:14;97537.95;;;11.22;62.59
77381;BME280;66439;50.106;10.996;2024-03-23T07:49:17;97544.75;;;11.18;62.36
77381;BME280;66439;50.106;10.996;2024-03-23T07:51:21;97541.73;;;11.15;62.51
77381;BME280;66439;50.106;10.996;2024-03-23T07:53:25;97550.74;;;11.13;62.82
77381;BME280;66439;50.106;10.996;2024-03-23T07:55:28;97551.00;;;11.12;62.74
77381;BME280;66439;50.106;10.996;2024-03-23T07:57:31;97553.19;;;11.11;62.70
77381;BME280;66439;50.106;10.996;2024-03-23T07:59:36;97567.65;;;11.07;62.43
77381;BME280;66439;50.106;10.996;2024-03-23T08:01:39;97575.82;;;11.01;62.37
77381;BME280;66439;50.106;10.996;2024-03-23T08:03:44;97582.65;;;11.00;62.74
77381;BME280;66439;50.106;10.996;2024-03-23T08:05:47;97596.71;;;11.01;62.43
77381;BME280;66439;50.106;10.996;2024-03-23T08:07:50;97602.27;;;11.00;62.45
77381;BME280;66439;50.106;10.996;2024-03-23T08:09:53;97611.41;;;11.01;62.67
77381;BME280;66439;50.106;10.996;2024-03-23T08:11:55;97621.22;;;11.02;62.67
77381;BME280;66439;50.106;10.996;2024-03-23T08:14:00;97622.85;;;10.98;62.12
77381;BME280;66439;50.106;10.996;2024-03-23T08:16:04;97622.78;;;10.92;62.09
77381;BME280;66439;50.106;10.996;2024-03-23T08:18:11;97625.80;;;10.86;62.17
77381;BME280;66439;50.106;10.996;2024-03-23T08:20:14;97625.16;;;10.84;62.28
77381;BME280;66439;50.106;10.996;2024-03-23T08:22:17;97631.52;;;10.83;62.19
77381;BME280;66439;50.106;10.996;2024-03-23T08:24:19;97636.95;;;10.79;62.13
77381;BME280;66439;50.106;10.996;2024-03-23T08:26:22;97650.86;;;10.78;62.55
77381;BME280;66439;50.106;10.996;2024-03-23T08:28:26;97659.95;;;10.76;62.29
77381;BME280;66439;50.106;10.996;2024-03-23T08:30:28;97660.00;;;10.73;62.24
77381;BME280;66439;50.106;10.996;2024-03-23T08:32:31;97669.13;;;10.72;61.81
77381;BME280;66439;50.106;10.996;2024-03-23T08:34:34;97681.96;;;10.66;61.37
77381;BME280;66439;50.106;10.996;2024-03-23T08:36:36;97704.09;;;10.64;60.55
77381;BME280;66439;50.106;10.996;2024-03-23T08:38:40;97726.55;;;10.54;60.02
77381;BME280;66439;50.106;10.996;2024-03-23T08:40:42;97740.63;;;10.46;59.65
77381;BME280;66439;50.106;10.996;2024-03-23T08:42:45;97754.29;;;10.36;59.32
77381;BME280;66439;50.106;10.996;2024-03-23T08:44:48;97771.52;;;10.26;58.71
77381;BME280;66439;50.106;10.996;2024-03-23T08:46:56;97785.25;;;10.07;58.42
77381;BME280;66439;50.106;10.996;2024-03-23T08:48:58;97796.96;;;9.85;58.44
77381;BME280;66439;50.106;10.996;2024-03-23T08:53:03;97797.01;;;9.34;58.43
77381;BME280;66439;50.106;10.996;2024-03-23T08:55:07;97814.04;;;9.21;58.85
77381;BME280;66439;50.106;10.996;2024-03-23T08:57:10;97821.29;;;9.11;59.19
77381;BME280;66439;50.106;10.996;2024-03-23T08:59:12;97837.11;;;9.04;59.54
77381;BME280;66439;50.106;10.996;2024-03-23T09:01:15;97839.93;;;8.99;59.76
77381;BME280;66439;50.106;10.996;2024-03-23T09:03:19;97846.80;;;8.98;60.05
77381;BME280;66439;50.106;10.996;2024-03-23T09:05:22;97853.53;;;9.01;60.08
77381;BME280;66439;50.106;10.996;2024-03-23T09:07:26;97861.25;;;8.96;59.53
77381;BME280;66439;50.106;10.996;2024-03-23T09:09:29;97866.89;;;8.87;59.55
77381;BME280;66439;50.106;10.996;2024-03-23T09:11:31;97870.60;;;8.86;59.59
77381;BME280;66439;50.106;10.996;2024-03-23T09:13:37;97858.37;;;8.82;59.69
77381;BME280;66439;50.106;10.996;2024-03-23T09:15:51;97860.88;;;8.84;59.49
77381;BME280;66439;50.106;10.996;2024-03-23T09:17:54;97865.11;;;8.85;59.48
77381;BME280;66439;50.106;10.996;2024-03-23T09:19:59;97868.98;;;8.89;59.59
77381;BME280;66439;50.106;10.996;2024-03-23T09:22:01;97871.77;;;8.92;59.57
77381;BME280;66439;50.106;10.996;2024-03-23T09:24:04;97881.37;;;8.99;59.35
77381;BME280;66439;50.106;10.996;2024-03-23T09:26:07;97887.56;;;9.04;59.22
77381;BME280;66439;50.106;10.996;2024-03-23T09:28:12;97888.45;;;9.14;59.13
77381;BME280;66439;50.106;10.996;2024-03-23T09:30:14;97895.71;;;9.22;59.05
77381;BME280;66439;50.106;10.996;2024-03-23T09:32:17;97896.11;;;9.28;58.59
77381;BME280;66439;50.106;10.996;2024-03-23T09:34:20;97899.57;;;9.31;58.53
77381;BME280;66439;50.106;10.996;2024-03-23T09:36:23;97900.86;;;9.38;58.49
77381;BME280;66439;50.106;10.996;2024-03-23T09:38:26;97906.21;;;9.47;58.23
77381;BME280;66439;50.106;10.996;2024-03-23T09:40:28;97910.91;;;9.54;58.22
77381;BME280;66439;50.106;10.996;2024-03-23T09:42:31;97912.06;;;9.63;57.84
77381;BME280;66439;50.106;10.996;2024-03-23T09:44:35;97909.45;;;9.70;57.70
77381;BME280;66439;50.106;10.996;2024-03-23T09:46:38;97919.02;;;9.74;56.71
77381;BME280;66439;50.106;10.996;2024-03-23T09:48:42;97930.26;;;9.80;57.17
77381;BME280;66439;50.106;10.996;2024-03-23T09:50:46;97929.40;;;9.87;56.91
77381;BME280;66439;50.106;10.996;2024-03-23T09:52:49;97940.77;;;9.86;56.19
77381;BME280;66439;50.106;10.996;2024-03-23T09:54:51;97943.98;;;9.88;56.37
77381;BME280;66439;50.106;10.996;2024-03-23T09:56:54;97946.31;;;9.91;56.35
77381;BME280;66439;50.106;10.996;2024-03-23T09:59:03;97952.52;;;9.94;56.30
77381;BME280;66439;50.106;10.996;2024-03-23T10:01:07;97951.72;;;9.91;55.83
77381;BME280;66439;50.106;10.996;2024-03-23T10:03:10;97961.96;;;9.89;56.08
77381;BME280;66439;50.106;10.996;2024-03-23T10:05:20;97970.31;;;9.88;55.98
77381;BME280;66439;50.106;10.996;2024-03-23T10:07:35;97972.23;;;9.83;55.20
77381;BME280;66439;50.106;10.996;2024-03-23T10:09:38;97968.20;;;9.80;55.76
77381;BME280;66439;50.106;10.996;2024-03-23T10:11:41;97973.57;;;9.82;55.62
77381;BME280;66439;50.106;10.996;2024-03-23T10:13:47;97972.77;;;9.81;55.51
77381;BME280;66439;50.106;10.996;2024-03-23T10:15:55;97979.12;;;9.83;54.89
77381;BME280;66439;50.106;10.996;2024-03-23T10:18:19;97976.95;;;9.84;54.76
77381;BME280;66439;50.106;10.996;2024-03-23T10:21:08;97979.14;;;9.87;54.30
77381;BME280;66439;50.106;10.996;2024-03-23T10:23:17;97986.27;;;9.90;54.37
77381;BME280;66439;50.106;10.996;2024-03-23T10:25:23;97986.08;;;9.96;54.61
77381;BME280;66439;50.106;10.996;2024-03-23T10:27:25;97992.77;;;10.02;54.12
77381;BME280;66439;50.106;10.996;2024-03-23T10:29:28;98002.40;;;10.01;52.74
77381;BME280;66439;50.106;10.996;2024-03-23T10:31:31;98003.06;;;9.94;52.46
77381;BME280;66439;50.106;10.996;2024-03-23T10:33:34;98002.23;;;9.89;51.55
77381;BME280;66439;50.106;10.996;2024-03-23T10:35:37;98004.00;;;9.85;52.03
77381;BME280;66439;50.106;10.996;2024-03-23T10:37:42;98002.02;;;9.82;51.87
77381;BME280;66439;50.106;10.996;2024-03-23T10:39:44;98004.02;;;9.82;51.82
77381;BME280;66439;50.106;10.996;2024-03-23T10:41:49;98005.73;;;9.80;51.93
77381;BME280;66439;50.106;10.996;2024-03-23T10:43:53;98005.03;;;9.79;52.22
77381;BME280;66439;50.106;10.996;2024-03-23T10:45:57;98006.49;;;9.84;52.06
77381;BME280;66439;50.106;10.996;2024-03-23T10:48:01;98007.52;;;9.87;51.77
77381;BME280;66439;50.106;10.996;2024-03-23T10:50:04;98007.02;;;9.88;51.52
77381;BME280;66439;50.106;10.996;2024-03-23T10:52:10;98006.11;;;9.90;50.97
77381;BME280;66439;50.106;10.996;2024-03-23T10:54:12;98006.48;;;9.90;50.82
77381;BME280;66439;50.106;10.996;2024-03-23T10:56:16;98009.50;;;9.91;50.53
77381;BME280;66439;50.106;10.996;2024-03-23T10:58:43;98005.41;;;9.89;49.67
77381;BME280;66439;50.106;10.996;2024-03-23T11:00:47;98003.03;;;9.87;49.55
77381;BME280;66439;50.106;10.996;2024-03-23T11:02:50;97999.16;;;9.88;50.07
77381;BME280;66439;50.106;10.996;2024-03-23T11:04:52;97998.94;;;9.92;50.12
77381;BME280;66439;50.106;10.996;2024-03-23T11:06:55;97997.96;;;9.94;49.82
77381;BME280;66439;50.106;10.996;2024-03-23T11:08:57;97992.28;;;9.94;49.87
77381;BME280;66439;50.106;10.996;2024-03-23T11:11:19;97994.04;;;9.96;49.87
77381;BME280;66439;50.106;10.996;2024-03-23T11:13:22;97999.65;;;9.96;49.67
77381;BME280;66439;50.106;10.996;2024-03-23T11:15:25;98000.60;;;9.98;49.88
77381;BME280;66439;50.106;10.996;2024-03-23T11:17:28;97996.24;;;10.02;49.93
77381;BME280;66439;50.106;10.996;2024-03-23T11:19:37;97997.84;;;10.08;50.02
77381;BME280;66439;50.106;10.996;2024-03-23T11:21:53;98000.41;;;10.12;50.00
77381;BME280;66439;50.106;10.996;2024-03-23T11:24:13;97999.33;;;10.15;49.66
77381;BME280;66439;50.106;10.996;2024-03-23T11:26:16;97998.85;;;10.17;49.35
77381;BME280;66439;50.106;10.996;2024-03-23T11:28:21;98006.94;;;10.15;49.14
77381;BME280;66439;50.106;10.996;2024-03-23T11:30:26;98011.03;;;10.11;49.12
77381;BME280;66439;50.106;10.996;2024-03-23T11:32:32;98007.75;;;10.08;49.14
77381;BME280;66439;50.106;10.996;2024-03-23T11:34:34;98004.92;;;10.06;49.17
77381;BME280;66439;50.106;10.996;2024-03-23T11:36:38;98004.88;;;10.07;49.37
77381;BME280;66439;50.106;10.996;2024-03-23T11:38:42;98006.09;;;10.09;49.76
77381;BME280;66439;50.106;10.996;2024-03-23T11:40:46;98011.45;;;10.13;49.55
77381;BME280;66439;50.106;10.996;2024-03-23T11:42:58;98014.65;;;10.16;49.39
77381;BME280;66439;50.106;10.996;2024-03-23T11:45:08;98005.65;;;10.14;49.14
77381;BME280;66439;50.106;10.996;2024-03-23T11:47:11;98008.44;;;10.13;49.23